Time;durP1;ratioP1;P1;durP2;ratioP2;P2;SDS_P1;SDS_P2;PMS_P1;PMS_P2;Temp;Humidity;BMP_temperature;BMP_pressure;BME280_temperature;BME280_humidity;BME280_pressure;Samples;Min_cycle;Max_cycle;Signal;HPM_P1;HPM_P2
2023/08/09 00:01:35;;;;;;;3.53;2.17;;;;;;;-145.63;45.43;38314.44;5023935;28;20068;-65
2023/08/09 00:04:01;;;;;;;4.45;2.20;;;;;;;-145.63;45.71;38337.88;5041432;28;20048;-66
2023/08/09 00:06:27;;;;;;;3.75;2.42;;;;;;;-145.63;45.56;38333.97;5031559;28;20044;-65
2023/08/09 00:08:52;;;;;;;3.50;2.20;;;;;;;-145.63;45.49;38367.22;5031964;28;20088;-64
2023/08/09 00:11:18;;;;;;;3.90;2.10;;;;;;;-145.63;45.51;38343.75;5040589;28;20203;-64
2023/08/09 00:13:43;;;;;;;2.47;2.28;;;;;;;-145.63;45.89;38375.03;5024157;28;20021;-65
2023/08/09 00:16:09;;;;;;;5.85;2.40;;;;;;;-145.63;45.85;38357.44;5042204;28;20047;-65
2023/08/09 00:18:35;;;;;;;4.80;1.60;;;;;;;-145.63;45.93;38371.13;5029914;28;20068;-64
2023/08/09 00:21:01;;;;;;;4.05;2.60;;;;;;;-145.63;45.93;38392.63;5032710;28;20105;-64
2023/08/09 00:23:28;;;;;;;6.00;2.13;;;;;;;-145.63;45.97;38382.88;5043385;28;20021;-66
2023/08/09 00:25:55;;;;;;;2.42;1.92;;;;;;;-145.63;46.24;38339.84;5043693;28;20108;-65
2023/08/09 00:28:20;;;;;;;4.75;2.38;;;;;;;-145.63;46.17;38363.31;5023762;28;20033;-64
2023/08/09 00:30:46;;;;;;;2.63;2.20;;;;;;;-145.63;46.00;38378.94;5038799;28;20033;-65
2023/08/09 00:33:12;;;;;;;4.40;2.00;;;;;;;-145.63;46.02;38378.94;5033270;28;20360;-66
2023/08/09 00:35:39;;;;;;;3.03;1.85;;;;;;;-145.63;46.21;38380.91;5029358;28;20033;-65
2023/08/09 00:38:04;;;;;;;1.88;1.77;;;;;;;-145.63;46.29;38363.31;5042454;28;20128;-64
2023/08/09 00:40:31;;;;;;;4.13;2.38;;;;;;;-145.63;46.04;38402.41;5025961;28;20053;-65
2023/08/09 00:42:56;;;;;;;4.25;2.00;;;;;;;-145.63;46.22;38390.69;5030472;28;20107;-65
2023/08/09 00:45:22;;;;;;;4.20;2.38;;;;;;;-145.63;46.21;38382.88;5029830;28;20214;-65
2023/08/09 00:47:48;;;;;;;2.45;2.00;;;;;;;-145.63;46.31;38425.88;5037000;28;20087;-65
2023/08/09 00:50:14;;;;;;;3.20;1.95;;;;;;;-145.63;46.12;38369.19;5023515;28;20026;-65
2023/08/09 00:52:39;;;;;;;3.28;2.17;;;;;;;-145.63;46.07;38386.78;5027150;28;20026;-65
2023/08/09 00:55:06;;;;;;;5.35;2.42;;;;;;;-145.63;46.13;38347.66;5034027;28;20037;-65
2023/08/09 00:57:32;;;;;;;5.20;2.10;;;;;;;-145.63;46.32;38378.94;5041393;28;20207;-65
2023/08/09 00:59:58;;;;;;;4.93;2.25;;;;;;;-145.63;46.39;38380.91;5035093;28;20021;-65
2023/08/09 01:02:24;;;;;;;4.30;2.22;;;;;;;-145.63;46.40;38482.59;5027309;28;20037;-66
2023/08/09 01:04:50;;;;;;;3.40;2.10;;;;;;;-145.63;46.65;38394.59;5043839;28;20310;-65
2023/08/09 01:07:41;;;;;;;7.38;2.40;;;;;;;-145.63;46.78;38398.50;5035531;28;20092;-64
2023/08/09 01:10:22;;;;;;;6.60;2.60;;;;;;;-145.63;46.70;38423.91;5037483;28;20037;-66
2023/08/09 01:12:54;;;;;;;4.43;2.10;;;;;;;-145.63;46.22;38359.41;5039385;28;20029;-66
2023/08/09 01:15:22;;;;;;;4.88;2.05;;;;;;;-145.63;46.34;38421.97;5030818;28;20033;-65
2023/08/09 01:17:49;;;;;;;4.57;2.20;;;;;;;-145.63;45.95;38390.69;5031573;28;20074;-65
2023/08/09 01:20:16;;;;;;;2.35;2.00;;;;;;;-145.63;46.16;38406.31;5046424;28;20026;-65
2023/08/09 01:23:15;;;;;;;3.72;1.95;;;;;;;-145.63;46.46;38388.72;5042314;28;20140;-65
2023/08/09 01:25:40;;;;;;;4.50;2.25;;;;;;;-145.63;46.56;38392.63;5019210;28;20173;-66
2023/08/09 01:28:06;;;;;;;3.22;2.17;;;;;;;-145.63;46.56;38371.13;5026736;28;20045;-66
2023/08/09 01:30:32;;;;;;;3.10;2.50;;;;;;;-145.63;46.50;38392.63;5031976;28;20075;-65
2023/08/09 01:32:59;;;;;;;4.93;2.22;;;;;;;-145.63;46.70;38439.56;5046256;28;20186;-64
2023/08/09 01:35:30;;;;;;;3.92;2.30;;;;;;;-145.63;46.44;38396.53;5026957;28;20053;-65
2023/08/09 01:38:03;;;;;;;3.92;2.30;;;;;;;-145.63;46.82;38437.59;5043264;28;20032;-66
2023/08/09 01:40:30;;;;;;;3.67;2.30;;;;;;;-145.63;46.79;38416.09;5035482;28;20029;-65
2023/08/09 01:42:57;;;;;;;5.15;2.42;;;;;;;-145.63;46.66;38459.13;5037928;28;20093;-64
2023/08/09 01:45:23;;;;;;;3.55;2.30;;;;;;;-145.63;47.09;38406.31;5045014;28;20030;-64
2023/08/09 01:47:48;;;;;;;3.63;2.22;;;;;;;-145.63;47.04;38455.22;5045948;28;20032;-66
2023/08/09 01:50:26;;;;;;;3.85;2.35;;;;;;;-145.63;47.01;38455.22;5027185;28;20246;-66
2023/08/09 01:52:56;;;;;;;3.22;2.30;;;;;;;-145.63;47.20;38425.88;5042461;28;20191;-66
2023/08/09 01:55:25;;;;;;;3.95;2.60;;;;;;;-145.63;46.61;38437.59;5034334;28;20087;-65
2023/08/09 01:57:52;;;;;;;8.45;2.50;;;;;;;-145.63;46.90;38463.03;5033757;28;20357;-65
2023/08/09 02:00:19;;;;;;;7.18;2.40;;;;;;;-145.63;46.82;38443.47;5043224;28;20037;-65
2023/08/09 02:02:49;;;;;;;4.43;2.78;;;;;;;-145.63;47.05;38431.75;5026133;28;20079;-65
2023/08/09 02:05:15;;;;;;;3.40;2.13;;;;;;;-145.63;46.87;38445.44;5045200;28;20079;-65
2023/08/09 02:07:41;;;;;;;3.72;2.40;;;;;;;-145.63;47.11;38421.97;5030955;28;20033;-65
2023/08/09 02:10:09;;;;;;;4.63;2.38;;;;;;;-145.63;46.86;38433.69;5035727;28;20037;-65
2023/08/09 02:12:36;;;;;;;6.70;2.78;;;;;;;-145.63;47.10;38472.81;5045805;28;20052;-65
2023/08/09 02:15:03;;;;;;;5.32;1.98;;;;;;;-145.63;47.01;38449.34;5045294;28;20089;-65
2023/08/09 02:17:31;;;;;;;3.15;2.30;;;;;;;-145.63;47.48;38484.53;5028264;28;20022;-65
2023/08/09 02:20:21;;;;;;;5.53;2.35;;;;;;;-145.63;47.44;38521.69;5025321;28;20069;-65
2023/08/09 02:22:48;;;;;;;5.53;2.53;;;;;;;-145.63;47.35;38484.53;5040677;28;20080;-65
2023/08/09 02:25:14;;;;;;;5.97;2.40;;;;;;;-145.63;46.96;38511.91;5034770;28;20033;-65
2023/08/09 02:27:40;;;;;;;2.80;2.10;;;;;;;-145.63;46.82;38453.25;5031369;28;20263;-65
2023/08/09 02:30:06;;;;;;;2.90;2.22;;;;;;;-145.63;46.32;38443.47;5044222;28;20144;-64
2023/08/09 02:32:36;;;;;;;2.88;2.33;;;;;;;-145.63;46.15;38451.28;5025774;28;20093;-65
2023/08/09 02:35:03;;;;;;;5.35;2.05;;;;;;;-145.63;46.32;38464.97;5043288;28;20029;-65
2023/08/09 02:37:30;;;;;;;4.60;2.22;;;;;;;-145.63;46.37;38463.03;5032518;28;20021;-64
2023/08/09 02:39:56;;;;;;;4.95;2.47;;;;;;;-145.63;46.10;38423.91;5033448;28;20025;-64
2023/08/09 02:42:23;;;;;;;2.58;2.38;;;;;;;-145.63;46.04;38384.81;5030856;28;20034;-65
2023/08/09 02:44:49;;;;;;;4.22;2.28;;;;;;;-145.63;46.38;38437.59;5045475;28;20176;-64
2023/08/09 02:47:15;;;;;;;3.33;2.10;;;;;;;-145.63;46.35;38425.88;5045356;28;20025;-65
2023/08/09 02:49:40;;;;;;;3.92;2.00;;;;;;;-145.63;46.23;38453.25;5031131;28;20037;-65
2023/08/09 02:52:06;;;;;;;2.88;2.20;;;;;;;-145.63;45.79;38437.59;5034613;28;20037;-64
2023/08/09 02:54:32;;;;;;;3.30;1.90;;;;;;;-145.63;45.80;38380.91;5040519;28;20032;-64
2023/08/09 02:56:58;;;;;;;2.60;2.17;;;;;;;-145.63;45.62;38425.88;5025405;28;20029;-65
2023/08/09 02:59:23;;;;;;;4.10;2.13;;;;;;;-145.63;45.74;38447.38;5025077;28;20026;-65
2023/08/09 03:01:49;;;;;;;5.85;2.17;;;;;;;-145.63;45.84;38408.28;5040087;28;20075;-65
2023/08/09 03:04:15;;;;;;;3.72;2.13;;;;;;;-145.63;45.42;38412.19;5045109;28;20273;-64
2023/08/09 03:06:40;;;;;;;2.67;1.92;;;;;;;-145.63;45.34;38433.69;5039394;28;20038;-65
2023/08/09 03:09:06;;;;;;;2.83;2.15;;;;;;;-145.63;45.43;38412.19;5024966;28;20029;-65
2023/08/09 03:11:32;;;;;;;3.78;2.30;;;;;;;-145.63;45.28;38423.91;5024661;28;20033;-65
2023/08/09 03:13:58;;;;;;;3.50;2.15;;;;;;;-145.63;45.25;38472.81;5040677;28;20021;-65
2023/08/09 03:16:23;;;;;;;4.80;2.35;;;;;;;-145.63;46.05;38437.59;5033217;28;20128;-64
2023/08/09 03:18:49;;;;;;;5.07;2.25;;;;;;;-145.63;45.68;38435.66;5030641;28;20190;-66
2023/08/09 03:21:15;;;;;;;2.08;1.80;;;;;;;-145.63;45.77;38404.38;5042892;28;20210;-65
2023/08/09 03:23:41;;;;;;;4.32;2.20;;;;;;;-145.63;46.06;38421.97;5024836;28;20069;-65
2023/08/09 03:26:07;;;;;;;3.38;2.10;;;;;;;-145.63;46.29;38441.53;5041697;28;20083;-64
2023/08/09 03:28:33;;;;;;;7.25;2.38;;;;;;;-145.63;45.82;38445.44;5031929;28;20092;-65
2023/08/09 03:30:58;;;;;;;3.97;2.28;;;;;;;-145.63;46.71;38453.25;5032385;28;20029;-65
2023/08/09 03:33:26;;;;;;;3.03;2.28;;;;;;;-145.63;46.54;38484.53;5041047;28;20025;-64
2023/08/09 03:35:51;;;;;;;4.47;2.17;;;;;;;-145.63;46.14;38394.59;5024545;28;20319;-65
2023/08/09 03:38:17;;;;;;;4.50;2.30;;;;;;;-145.63;45.96;38394.59;5042815;28;20079;-65
2023/08/09 03:40:43;;;;;;;3.13;2.30;;;;;;;-145.63;46.04;38431.75;5034634;28;20313;-64
2023/08/09 03:43:08;;;;;;;3.67;2.20;;;;;;;-145.63;45.93;38421.97;5043831;28;20025;-65
2023/08/09 03:45:34;;;;;;;5.18;2.35;;;;;;;-145.63;45.62;38443.47;5043974;28;20025;-65
2023/08/09 03:48:00;;;;;;;2.80;2.25;;;;;;;-145.63;46.10;38404.38;5043946;28;20026;-65
2023/08/09 03:50:26;;;;;;;5.70;2.20;;;;;;;-145.63;46.45;38429.78;5024429;28;20042;-65
2023/08/09 03:52:52;;;;;;;3.95;2.10;;;;;;;-145.63;45.77;38435.66;5039096;28;20022;-64
2023/08/09 03:55:18;;;;;;;3.83;2.20;;;;;;;-145.63;46.15;38437.59;5033823;28;20041;-65
2023/08/09 03:57:44;;;;;;;4.63;2.25;;;;;;;-145.63;45.85;38437.59;5029619;28;20336;-65
2023/08/09 04:00:17;;;;;;;6.82;2.67;;;;;;;-145.63;45.55;38371.13;5042792;28;20029;-64
2023/08/09 04:02:47;;;;;;;6.75;2.40;;;;;;;-145.63;45.63;38402.41;5023875;28;20322;-66
2023/08/09 04:05:16;;;;;;;5.07;2.67;;;;;;;-145.63;45.96;38394.59;5023496;28;20032;-65
2023/08/09 04:07:42;;;;;;;5.28;2.53;;;;;;;-145.63;45.87;38384.81;5023320;28;20041;-64
2023/08/09 04:10:09;;;;;;;2.15;1.90;;;;;;;-145.63;45.53;38410.22;5032166;28;20242;-65
2023/08/09 04:12:37;;;;;;;32.83;22.40;;;;;;;-145.63;45.34;38359.41;5039239;28;20044;-65
2023/08/09 04:15:04;;;;;;;14.15;4.80;;;;;;;-145.63;45.53;38404.38;5023607;28;20032;-65
2023/08/09 04:17:34;;;;;;;9.85;2.92;;;;;;;-145.63;45.64;38365.25;5023455;28;20057;-65
2023/08/09 04:20:00;;;;;;;6.13;2.38;;;;;;;-145.63;45.36;38378.94;5039070;28;20299;-65
2023/08/09 04:22:28;;;;;;;3.00;2.13;;;;;;;-145.63;45.36;38433.69;5038733;28;20037;-64
2023/08/09 04:24:53;;;;;;;4.70;2.35;;;;;;;-145.63;45.58;38412.19;5038668;28;20017;-65
2023/08/09 04:27:19;;;;;;;2.90;2.05;;;;;;;-145.63;45.35;38359.41;5023170;28;20076;-64
2023/08/09 04:29:45;;;;;;;2.88;1.95;;;;;;;-145.63;45.64;38343.75;5023506;28;20029;-66
2023/08/09 04:32:12;;;;;;;3.13;2.08;;;;;;;-145.63;45.91;38230.34;5040523;28;20021;-65
2023/08/09 04:34:37;;;;;;;5.72;2.42;;;;;;;-145.63;45.45;38341.81;5030690;28;20049;-65
2023/08/09 04:37:03;;;;;;;3.63;2.13;;;;;;;-145.63;45.13;38332.03;5031111;28;20325;-65
2023/08/09 04:39:29;;;;;;;3.35;2.10;;;;;;;-145.63;45.19;38285.09;5039642;28;20034;-65
2023/08/09 04:41:55;;;;;;;2.92;2.00;;;;;;;-145.63;45.24;38312.47;5037227;28;20051;-64
2023/08/09 04:44:20;;;;;;;2.78;2.00;;;;;;;-145.63;45.69;38431.75;5032942;28;20033;-65
2023/08/09 04:46:46;;;;;;;3.33;1.80;;;;;;;-145.63;45.67;38306.59;5043060;28;20048;-64
2023/08/09 04:49:12;;;;;;;2.42;1.90;;;;;;;-145.63;45.19;38283.16;5042970;28;20072;-65
2023/08/09 04:51:38;;;;;;;3.65;2.20;;;;;;;-145.63;45.03;38269.47;5038363;28;20072;-65
2023/08/09 04:54:03;;;;;;;3.38;2.28;;;;;;;-145.63;44.92;38265.53;5023203;28;20034;-65
2023/08/09 04:56:29;;;;;;;3.80;2.25;;;;;;;-145.63;45.24;38296.81;5022761;28;20360;-65
2023/08/09 04:58:55;;;;;;;13.55;11.13;;;;;;;-145.63;45.18;38257.72;5037564;28;20036;-66
2023/08/09 05:01:20;;;;;;;10.15;8.63;;;;;;;-145.63;45.14;38294.88;5032779;28;20026;-65
2023/08/09 05:03:46;;;;;;;4.70;2.53;;;;;;;-145.63;44.88;38285.09;5028337;28;20041;-65
2023/08/09 05:06:12;;;;;;;3.10;2.30;;;;;;;-145.63;44.91;38277.28;5042255;28;20072;-65
2023/08/09 05:08:37;;;;;;;9.48;7.28;;;;;;;-145.63;44.93;38251.84;5023423;28;20120;-66
2023/08/09 05:11:03;;;;;;;15.35;13.10;;;;;;;-145.63;45.15;38226.44;5038540;28;20025;-65
2023/08/09 05:13:28;;;;;;;4.80;2.70;;;;;;;-145.63;45.53;37896.03;5031892;28;20033;-64
2023/08/09 05:15:54;;;;;;;5.93;2.70;;;;;;;-145.63;45.55;38251.84;5028115;28;20034;-67
2023/08/09 05:18:19;;;;;;;5.05;2.40;;;;;;;-145.63;45.17;38285.09;5041086;28;20025;-65
2023/08/09 05:20:45;;;;;;;4.40;2.72;;;;;;;-145.63;45.74;38267.50;5023145;28;20017;-66
2023/08/09 05:23:11;;;;;;;7.53;4.18;;;;;;;-145.63;45.55;38265.53;5039617;28;20214;-65
2023/08/09 05:25:36;;;;;;;3.83;2.30;;;;;;;-145.63;45.33;38251.84;5030683;28;20026;-65
2023/08/09 05:28:02;;;;;;;3.83;2.40;;;;;;;-145.63;45.28;38275.31;5029998;28;20025;-65
2023/08/09 05:30:29;;;;;;;5.50;3.03;;;;;;;-145.63;45.57;38206.88;5040146;28;20022;-65
2023/08/09 05:32:54;;;;;;;3.72;2.60;;;;;;;-145.63;45.72;38253.81;5022870;28;20049;-65
2023/08/09 05:35:20;;;;;;;5.80;3.22;;;;;;;-145.63;45.38;38242.09;5022663;28;20080;-66
2023/08/09 05:37:45;;;;;;;8.45;4.20;;;;;;;-145.63;45.87;38197.13;5035865;28;20033;-65
2023/08/09 05:40:13;;;;;;;5.30;3.70;;;;;;;-145.63;45.63;38238.16;5033951;28;20022;-65
2023/08/09 05:42:40;;;;;;;4.30;3.75;;;;;;;-145.63;45.34;38218.63;5029470;28;20054;-65
2023/08/09 05:45:06;;;;;;;6.72;4.35;;;;;;;-145.63;46.03;38246.00;5046209;28;20104;-65
2023/08/09 05:47:32;;;;;;;6.05;3.30;;;;;;;-145.63;45.83;38228.41;5045989;28;20037;-65
2023/08/09 05:49:58;;;;;;;7.38;3.13;;;;;;;-145.63;45.74;38247.94;5030229;28;20030;-64
2023/08/09 05:52:23;;;;;;;9.30;3.75;;;;;;;-145.63;45.35;38271.41;5035764;28;20052;-65
2023/08/09 05:54:49;;;;;;;8.38;3.60;;;;;;;-145.63;45.55;38253.81;5040907;28;20026;-65
2023/08/09 05:57:15;;;;;;;5.15;3.28;;;;;;;-145.63;45.87;38271.41;5026684;28;20195;-65
2023/08/09 05:59:40;;;;;;;9.65;4.22;;;;;;;-145.63;46.15;38261.63;5045860;28;20342;-65
2023/08/09 06:02:06;;;;;;;8.52;3.35;;;;;;;-145.63;46.21;38283.16;5030219;28;20045;-65
2023/08/09 06:04:35;;;;;;;5.60;3.10;;;;;;;-145.63;46.52;38296.81;5035880;28;20207;-65
2023/08/09 06:07:01;;;;;;;3.45;3.05;;;;;;;-145.63;46.30;38289.00;5039066;28;20042;-65
2023/08/09 06:09:27;;;;;;;5.63;3.38;;;;;;;-145.63;46.27;38330.06;5027763;28;20026;-65
2023/08/09 06:11:53;;;;;;;3.10;2.75;;;;;;;-145.63;46.23;38289.00;5045637;28;20025;-65
2023/08/09 06:14:18;;;;;;;6.57;3.85;;;;;;;-145.63;46.15;38261.63;5045779;28;20029;-65
2023/08/09 06:16:47;;;;;;;7.97;3.50;;;;;;;-145.63;46.06;38277.28;5033318;28;20065;-65
2023/08/09 06:19:13;;;;;;;8.63;5.63;;;;;;;-145.63;46.13;38273.38;5025783;28;20033;-65
2023/08/09 06:21:39;;;;;;;6.15;3.88;;;;;;;-145.63;46.47;38259.69;5029211;28;20257;-65
2023/08/09 06:24:05;;;;;;;6.68;3.20;;;;;;;-145.63;46.27;38300.75;5045548;28;20164;-64
2023/08/09 06:26:32;;;;;;;3.67;3.10;;;;;;;-145.63;46.29;38298.78;5026533;28;20111;-65
2023/08/09 06:28:58;;;;;;;6.20;3.20;;;;;;;-145.63;46.36;38275.31;5025816;28;20025;-65
2023/08/09 06:31:24;;;;;;;7.72;3.60;;;;;;;-145.63;46.38;38281.19;5034982;28;20025;-65
2023/08/09 06:33:50;;;;;;;9.60;3.20;;;;;;;-145.63;46.35;38263.59;5040574;28;20026;-66
2023/08/09 06:36:15;;;;;;;5.90;3.75;;;;;;;-145.63;46.66;38287.06;5025638;28;20044;-65
2023/08/09 06:38:41;;;;;;;6.68;3.50;;;;;;;-145.63;46.69;38255.78;5045271;28;20036;-64
2023/08/09 06:41:07;;;;;;;6.03;3.50;;;;;;;-145.63;46.65;38281.19;5037118;28;20321;-66
2023/08/09 06:43:33;;;;;;;9.73;3.83;;;;;;;-145.63;46.70;38263.59;5034218;28;20040;-65
2023/08/09 06:46:00;;;;;;;5.72;4.00;;;;;;;-145.63;46.46;38314.44;5025337;28;20025;-65
2023/08/09 06:48:29;;;;;;;6.40;3.47;;;;;;;-145.63;46.40;38177.56;5026642;28;20041;-65
2023/08/09 06:50:57;;;;;;;8.93;4.20;;;;;;;-145.63;45.97;38173.66;5044097;28;20370;-66
2023/08/09 06:53:23;;;;;;;5.82;3.78;;;;;;;-145.63;45.79;38185.38;5026405;28;20037;-65
2023/08/09 06:55:49;;;;;;;5.75;4.05;;;;;;;-145.63;46.20;38218.63;5037983;28;20043;-66
2023/08/09 06:58:14;;;;;;;9.43;4.82;;;;;;;-145.63;46.31;38247.94;5036784;28;20245;-65
2023/08/09 07:00:40;;;;;;;8.57;4.20;;;;;;;-145.63;46.12;38247.94;5028511;28;20029;-65
2023/08/09 07:03:06;;;;;;;5.22;3.55;;;;;;;-145.63;46.23;38226.44;5044834;28;20060;-66
2023/08/09 07:05:32;;;;;;;8.68;3.60;;;;;;;-145.63;45.90;38199.06;5026030;28;20026;-65
2023/08/09 07:07:58;;;;;;;4.65;3.80;;;;;;;-145.63;46.06;38177.56;5038972;28;20058;-64
2023/08/09 07:10:27;;;;;;;9.23;3.70;;;;;;;-145.63;45.73;38167.78;5035399;28;20199;-66
2023/08/09 07:12:53;;;;;;;10.00;4.10;;;;;;;-145.63;46.08;38202.97;5029753;28;20198;-64
2023/08/09 07:15:19;;;;;;;7.50;3.70;;;;;;;-145.63;45.89;38240.13;5044200;28;20021;-65
2023/08/09 07:17:46;;;;;;;8.20;3.72;;;;;;;-145.63;45.89;38187.34;5024650;28;20103;-65
2023/08/09 07:20:14;;;;;;;5.20;3.80;;;;;;;-145.63;45.73;38169.75;5040161;28;20040;-65
2023/08/09 07:22:40;;;;;;;7.75;3.60;;;;;;;-145.63;46.43;38109.13;5033035;28;20030;-65
2023/08/09 07:25:09;;;;;;;6.80;4.18;;;;;;;-145.63;46.24;38128.69;5024400;28;20026;-65
2023/08/09 07:27:46;;;;;;;6.03;3.70;;;;;;;-145.63;45.76;38089.56;5024321;28;20094;-65
2023/08/09 07:30:16;;;;;;;7.43;5.10;;;;;;;-145.63;45.94;38087.63;5024042;28;20195;-66
2023/08/09 07:32:43;;;;;;;5.07;4.57;;;;;;;-145.63;45.84;38105.22;5043729;28;20306;-65
2023/08/09 07:35:11;;;;;;;7.57;5.43;;;;;;;-145.63;45.96;38136.50;5029034;28;20101;-65
2023/08/09 07:37:40;;;;;;;6.00;4.70;;;;;;;-145.63;45.79;38052.44;5034939;28;20029;-66
2023/08/09 07:40:06;;;;;;;5.10;4.70;;;;;;;-145.63;46.02;38054.38;5037612;28;20042;-66
2023/08/09 07:42:35;;;;;;;6.47;5.05;;;;;;;-145.63;45.98;38030.94;5041110;28;20048;-66
2023/08/09 07:45:02;;;;;;;8.07;5.28;;;;;;;-145.63;45.81;38066.13;5039554;28;20044;-65
2023/08/09 07:47:32;;;;;;;8.40;5.30;;;;;;;-145.63;45.74;38079.81;5026103;28;20022;-65
2023/08/09 07:49:58;;;;;;;5.72;4.90;;;;;;;-145.63;45.98;38070.03;5036680;28;20040;-65
2023/08/09 07:52:24;;;;;;;8.57;5.57;;;;;;;-145.63;46.21;38136.50;5035022;28;20210;-66
2023/08/09 07:54:50;;;;;;;9.68;5.80;;;;;;;-145.63;45.95;38071.97;5028621;28;20025;-65
2023/08/09 07:57:15;;;;;;;8.48;5.70;;;;;;;-145.63;46.05;38079.81;5044176;28;20195;-65
2023/08/09 07:59:41;;;;;;;7.93;5.53;;;;;;;-145.63;46.21;38058.28;5024447;28;20212;-66
2023/08/09 08:02:07;;;;;;;7.97;5.40;;;;;;;-145.63;46.52;38046.56;5038912;28;20033;-66
2023/08/09 08:04:32;;;;;;;7.85;5.85;;;;;;;-145.63;46.47;38064.16;5043291;28;20033;-65
2023/08/09 08:06:58;;;;;;;9.65;6.28;;;;;;;-145.63;46.19;38064.16;5038700;28;20048;-66
2023/08/09 08:09:24;;;;;;;8.85;5.70;;;;;;;-145.63;46.45;37862.78;5023767;28;20018;-65
2023/08/09 08:11:52;;;;;;;11.60;6.63;;;;;;;-145.63;46.61;38050.47;5024248;28;20094;-65
2023/08/09 08:14:18;;;;;;;6.53;5.82;;;;;;;-145.63;46.73;38054.38;5039693;28;20272;-66
2023/08/09 08:16:44;;;;;;;9.68;6.85;;;;;;;-145.63;46.92;38083.72;5032198;28;20084;-65
2023/08/09 08:19:10;;;;;;;7.97;6.63;;;;;;;-145.63;46.97;38097.41;5030425;28;20080;-65
2023/08/09 08:21:36;;;;;;;8.23;6.65;;;;;;;-145.63;46.84;38062.22;5041514;28;20313;-66
2023/08/09 08:24:04;;;;;;;12.60;7.53;;;;;;;-145.63;47.25;38091.53;5023772;28;20366;-64
2023/08/09 08:26:33;;;;;;;8.90;6.50;;;;;;;-145.63;47.11;38066.13;5041760;28;20029;-65
2023/08/09 08:28:59;;;;;;;9.07;6.28;;;;;;;-145.63;47.98;38070.03;5030268;28;20191;-65
2023/08/09 08:31:26;;;;;;;9.10;6.20;;;;;;;-145.63;47.57;38124.78;5031745;28;20030;-67
2023/08/09 08:33:54;;;;;;;7.88;6.80;;;;;;;-145.63;47.50;38070.03;5038805;28;20111;-65
2023/08/09 08:36:22;;;;;;;6.85;6.15;;;;;;;-145.63;47.51;38083.72;5023633;28;20334;-64
2023/08/09 08:38:53;;;;;;;7.60;5.80;;;;;;;-145.63;47.66;38126.72;5023813;28;20026;-66
2023/08/09 08:41:18;;;;;;;7.88;6.32;;;;;;;-145.63;48.37;38142.38;5030415;28;20137;-65
2023/08/09 08:43:45;;;;;;;8.70;6.28;;;;;;;-145.63;47.42;38103.25;5027724;28;20032;-65
2023/08/09 08:46:15;;;;;;;7.32;5.82;;;;;;;-145.63;47.22;38142.38;5035263;28;20075;-65
2023/08/09 08:48:47;;;;;;;7.97;5.72;;;;;;;-145.63;47.48;38187.34;5025536;28;20105;-65
2023/08/09 08:51:13;;;;;;;;;;;;;;;-145.63;47.72;38095.44;5043566;28;20096;-65
2023/08/09 08:53:38;;;;;;;5.55;4.70;;;;;;;-145.63;47.28;38126.72;5038573;28;20109;-66
2023/08/09 08:56:04;;;;;;;5.13;4.60;;;;;;;-145.63;47.32;38122.81;5023256;28;20052;-65
2023/08/09 08:58:31;;;;;;;6.30;4.43;;;;;;;-145.63;46.60;38126.72;5023230;28;20307;-64
2023/08/09 09:00:56;;;;;;;8.43;5.18;;;;;;;-145.63;47.05;38124.78;5027755;28;20021;-65
2023/08/09 09:03:22;;;;;;;5.68;4.93;;;;;;;-145.63;47.26;38148.22;5042850;28;20044;-65
2023/08/09 09:05:48;;;;;;;6.93;4.90;;;;;;;-145.63;47.57;38146.28;5023106;28;20041;-66
2023/08/09 09:08:14;;;;;;;10.52;4.90;;;;;;;-145.63;47.25;38150.19;5037867;28;20025;-65
2023/08/09 09:10:44;;;;;;;6.32;4.60;;;;;;;-145.63;46.94;38146.28;5032820;28;20088;-65
2023/08/09 09:13:23;;;;;;;5.93;5.32;;;;;;;-145.63;46.81;38167.78;5028191;28;20025;-66
2023/08/09 09:15:49;;;;;;;7.13;4.70;;;;;;;-145.63;47.03;38154.09;5039628;28;20030;-64
2023/08/09 09:18:15;;;;;;;4.82;4.28;;;;;;;-145.63;46.90;38156.06;5026770;28;20022;-66
2023/08/09 09:20:41;;;;;;;6.28;4.22;;;;;;;-145.63;46.92;38116.94;5045480;28;20187;-66
2023/08/09 09:23:07;;;;;;;8.02;4.45;;;;;;;-145.63;46.84;38179.50;5032611;28;20044;-64
2023/08/09 09:25:33;;;;;;;5.65;4.00;;;;;;;-145.63;46.77;38122.81;5035972;28;20087;-65
2023/08/09 09:27:59;;;;;;;7.47;3.95;;;;;;;-145.63;46.98;38097.41;5042012;28;20299;-64
2023/08/09 09:30:29;;;;;;;5.32;4.55;;;;;;;-145.63;47.15;38171.69;5026781;28;20076;-65
2023/08/09 09:32:58;;;;;;;8.02;3.63;;;;;;;-145.63;47.68;38105.22;5026684;28;20030;-65
2023/08/09 09:35:26;;;;;;;6.57;4.07;;;;;;;-145.63;47.36;38136.50;5042730;28;20033;-65
2023/08/09 09:37:53;;;;;;;8.25;4.13;;;;;;;-145.63;46.77;38083.72;5042038;28;20080;-66
2023/08/09 09:40:24;;;;;;;7.70;5.13;;;;;;;-145.63;47.13;38085.66;5026360;28;20065;-65
2023/08/09 09:42:54;;;;;;;5.85;3.88;;;;;;;-145.63;46.83;38109.13;5029890;28;20092;-65
2023/08/09 09:45:23;;;;;;;8.25;4.28;;;;;;;-145.63;46.98;38105.22;5046234;28;20075;-65
2023/08/09 09:47:51;;;;;;;6.25;3.78;;;;;;;-145.63;46.51;38089.56;5026639;28;20136;-64
2023/08/09 09:50:17;;;;;;;7.32;4.07;;;;;;;-145.63;46.50;38132.59;5026359;28;20049;-67
2023/08/09 09:52:45;;;;;;;6.95;3.80;;;;;;;-145.63;46.93;38134.53;5036665;28;20076;-66
2023/08/09 09:55:11;;;;;;;4.88;3.38;;;;;;;-145.63;45.93;38058.28;5041568;28;20166;-66
2023/08/09 09:57:36;;;;;;;6.18;3.28;;;;;;;-145.63;45.81;38087.63;5027351;28;20060;-65
2023/08/09 10:00:08;;;;;;;4.63;3.42;;;;;;;-145.63;45.44;38097.41;5044576;28;20029;-65
2023/08/09 10:02:53;;;;;;;;;;;;;;;-145.63;45.63;38070.03;5046050;28;20357;-66
2023/08/09 10:05:35;;;;;;;4.57;3.65;;;;;;;-145.63;45.18;38124.78;5030519;28;19936;-65
2023/08/09 10:08:07;;;;;;;6.93;3.38;;;;;;;-145.63;45.11;37538.25;5038592;28;20089;-65
2023/08/09 10:10:35;;;;;;;4.60;3.20;;;;;;;-145.63;44.90;38007.47;5041026;28;20030;-66
2023/08/09 10:13:03;;;;;;;4.35;3.30;;;;;;;-145.63;44.96;38030.94;5025971;28;20259;-65
2023/08/09 10:15:35;;;;;;;4.50;3.10;;;;;;;-145.63;44.48;37982.03;5025783;28;20037;-65
2023/08/09 10:18:11;;;;;;;3.67;3.15;;;;;;;-145.63;44.44;37999.66;5025869;28;20034;-66
2023/08/09 10:20:44;;;;;;;4.40;3.00;;;;;;;-145.63;44.71;37960.53;5043160;28;20044;-66
2023/08/09 10:23:21;;;;;;;3.58;3.05;;;;;;;-145.63;43.51;38005.50;5032091;28;20034;-65
2023/08/09 10:25:49;;;;;;;6.53;3.20;;;;;;;-145.63;43.44;37987.91;5036549;28;20040;-65
2023/08/09 10:28:14;;;;;;;4.85;3.00;;;;;;;-145.63;43.35;37970.31;5039213;28;20210;-65
2023/08/09 10:30:44;;;;;;;4.22;2.95;;;;;;;-145.63;43.24;38028.97;5027001;28;20049;-65
2023/08/09 10:33:10;;;;;;;5.40;2.90;;;;;;;-145.63;43.32;38007.47;5045510;28;20202;-64
2023/08/09 10:35:54;;;;;;;5.80;2.83;;;;;;;-145.63;42.86;37896.03;5027679;28;20072;-64
2023/08/09 10:38:31;;;;;;;3.63;3.10;;;;;;;-145.63;43.68;37851.06;5038982;28;20033;-65
2023/08/09 10:40:59;;;;;;;5.70;3.55;;;;;;;-145.63;43.74;37894.06;5039221;28;20032;-65
2023/08/09 10:43:30;;;;;;;3.45;3.00;;;;;;;-145.63;43.81;37819.78;5039339;28;20254;-66
2023/08/09 10:45:56;;;;;;;4.20;3.10;;;;;;;-145.63;43.41;37835.41;5041507;28;20089;-65
2023/08/09 10:48:24;;;;;;;5.03;3.20;;;;;;;-145.63;43.11;37845.19;5025290;28;20326;-65
2023/08/09 10:51:08;;;;;;;3.80;2.83;;;;;;;-145.63;44.02;37843.25;5044159;28;20040;-65
2023/08/09 10:54:03;;;;;;;7.22;3.05;;;;;;;-145.63;42.50;37952.72;5044861;28;20029;-65
2023/08/09 10:56:32;;;;;;;4.85;3.08;;;;;;;-145.63;42.59;37882.34;5044682;28;20033;-65
2023/08/09 10:59:21;;;;;;;4.38;3.20;;;;;;;-145.63;43.42;37890.16;5033113;28;20026;-65
2023/08/09 11:01:49;;;;;;;4.35;3.03;;;;;;;-145.63;42.53;37870.59;5024871;28;20053;-65
2023/08/09 11:04:18;;;;;;;5.07;3.45;;;;;;;-145.63;42.52;37854.97;5030696;28;20092;-66
2023/08/09 11:06:46;;;;;;;3.40;3.10;;;;;;;-145.63;42.92;37839.31;5043083;28;20044;-65
2023/08/09 11:09:13;;;;;;;5.47;3.55;;;;;;;-145.63;43.07;37860.84;5025129;28;20076;-65
2023/08/09 11:11:42;;;;;;;4.55;3.05;;;;;;;-145.63;42.01;37819.78;5041993;28;20032;-65
2023/08/09 11:14:09;;;;;;;4.22;3.00;;;;;;;-145.63;42.77;37784.59;5031591;28;20064;-65
2023/08/09 11:16:35;;;;;;;5.13;3.33;;;;;;;-145.63;41.93;37737.66;5032927;28;20091;-65
2023/08/09 11:19:04;;;;;;;3.63;3.03;;;;;;;-145.63;42.79;37710.31;5044512;28;20041;-66